Time;durP1;ratioP1;P1;durP2;ratioP2;P2;SDS_P1;SDS_P2;PMS_P1;PMS_P2;Temp;Humidity;BMP_temperature;BMP_pressure;BME280_temperature;BME280_humidity;BME280_pressure;Samples;Min_cycle;Max_cycle;Signal;HPM_P1;HPM_P2
2021/05/01 00:00:31;;;;;;;16.77;14.97;;;;;;;;;;5074441;28;20172;-63
2021/05/01 00:02:57;;;;;;;15.63;14.00;;;;;;;;;;5083006;28;20176;-63
2021/05/01 00:05:23;;;;;;;15.87;14.07;;;;;;;;;;5089276;28;20237;-63
2021/05/01 00:07:49;;;;;;;17.37;15.57;;;;;;;;;;5089357;28;20626;-63
2021/05/01 00:10:15;;;;;;;16.23;13.73;;;;;;;;;;5089358;28;20249;-63
2021/05/01 00:12:41;;;;;;;15.93;14.33;;;;;;;;;;5074111;28;20180;-63
2021/05/01 00:15:11;;;;;;;15.43;13.80;;;;;;;;;;5067825;28;20167;-62
2021/05/01 00:17:37;;;;;;;17.20;15.17;;;;;;;;;;5081964;28;20168;-62
2021/05/01 00:20:04;;;;;;;16.60;14.63;;;;;;;;;;5090919;28;20622;-62
2021/05/01 00:22:30;;;;;;;15.93;14.23;;;;;;;;;;5075307;28;20176;-62
2021/05/01 00:24:56;;;;;;;18.37;15.57;;;;;;;;;;5082749;28;20184;-62
2021/05/01 00:27:22;;;;;;;17.83;15.93;;;;;;;;;;5080202;28;20192;-65
2021/05/01 00:29:48;;;;;;;17.03;15.23;;;;;;;;;;5083441;28;20195;-64
2021/05/01 00:32:14;;;;;;;17.13;15.43;;;;;;;;;;5075942;28;20184;-62
2021/05/01 00:34:40;;;;;;;17.70;15.83;;;;;;;;;;5064738;28;20223;-64
2021/05/01 00:37:09;;;;;;;17.73;15.83;;;;;;;;;;5093333;28;20216;-65
2021/05/01 00:39:35;;;;;;;16.90;14.73;;;;;;;;;;5088715;28;20669;-63
2021/05/01 00:42:01;;;;;;;17.83;15.97;;;;;;;;;;5089984;28;20175;-64
2021/05/01 00:44:27;;;;;;;18.50;16.07;;;;;;;;;;5087764;28;20184;-64
2021/05/01 00:46:53;;;;;;;19.03;16.97;;;;;;;;;;5088134;28;20191;-62
2021/05/01 00:49:19;;;;;;;19.97;17.90;;;;;;;;;;5088531;28;20199;-65
2021/05/01 00:51:45;;;;;;;19.47;17.47;;;;;;;;;;5061811;28;20642;-63
2021/05/01 00:54:11;;;;;;;19.07;16.53;;;;;;;;;;5069674;28;20642;-65
2021/05/01 00:56:37;;;;;;;19.63;17.53;;;;;;;;;;5069702;28;20294;-65
2021/05/01 00:59:03;;;;;;;21.70;17.40;;;;;;;;;;5089724;28;20297;-63
2021/05/01 01:01:30;;;;;;;19.13;16.83;;;;;;;;;;5087296;28;20211;-64
2021/05/01 01:03:56;;;;;;;21.30;19.00;;;;;;;;;;5089201;28;20203;-61
2021/05/01 01:06:22;;;;;;;21.13;17.93;;;;;;;;;;5092375;28;20256;-67
2021/05/01 01:08:48;;;;;;;21.03;17.57;;;;;;;;;;5074051;28;20187;-62
2021/05/01 01:11:14;;;;;;;20.60;18.40;;;;;;;;;;5073579;28;20650;-65
2021/05/01 01:13:41;;;;;;;21.40;18.97;;;;;;;;;;5093298;28;20175;-64
2021/05/01 01:16:07;;;;;;;20.50;18.30;;;;;;;;;;5091834;28;20203;-61
2021/05/01 01:18:33;;;;;;;21.60;19.27;;;;;;;;;;5093588;28;20191;-65
2021/05/01 01:21:02;;;;;;;20.07;17.37;;;;;;;;;;5093596;28;20172;-65
2021/05/01 01:23:28;;;;;;;23.03;19.50;;;;;;;;;;5079329;28;20188;-65
2021/05/01 01:25:54;;;;;;;20.67;18.47;;;;;;;;;;5090861;28;20390;-64
2021/05/01 01:28:20;;;;;;;22.43;19.83;;;;;;;;;;5082618;28;20696;-64
2021/05/01 01:30:46;;;;;;;21.40;19.17;;;;;;;;;;5078179;28;20184;-64
2021/05/01 01:33:12;;;;;;;22.37;20.07;;;;;;;;;;5092440;28;20219;-64
2021/05/01 01:35:39;;;;;;;19.73;17.63;;;;;;;;;;5087150;28;20286;-64
2021/05/01 01:38:06;;;;;;;22.93;20.03;;;;;;;;;;5075357;28;20179;-64
2021/05/01 01:40:32;;;;;;;22.80;19.60;;;;;;;;;;5074395;28;20183;-64
2021/05/01 01:42:58;;;;;;;22.27;19.40;;;;;;;;;;5073308;28;20190;-64
2021/05/01 01:45:29;;;;;;;22.60;19.00;;;;;;;;;;5092998;28;20176;-65
2021/05/01 01:47:56;;;;;;;22.40;19.80;;;;;;;;;;5075890;28;20557;-64
2021/05/01 01:50:23;;;;;;;23.67;19.57;;;;;;;;;;5090688;28;20195;-64
2021/05/01 01:52:49;;;;;;;21.27;18.67;;;;;;;;;;5084678;28;20218;-63
2021/05/01 01:55:17;;;;;;;20.67;18.50;;;;;;;;;;5090714;28;20180;-64
2021/05/01 01:57:43;;;;;;;22.67;19.57;;;;;;;;;;5074890;28;20176;-64
2021/05/01 02:00:14;;;;;;;23.33;19.43;;;;;;;;;;5087539;28;20172;-67
2021/05/01 02:02:40;;;;;;;20.43;18.23;;;;;;;;;;5080377;28;20217;-64
2021/05/01 02:05:07;;;;;;;22.20;19.77;;;;;;;;;;5072281;28;20176;-64
2021/05/01 02:07:33;;;;;;;21.73;19.43;;;;;;;;;;5089314;28;20638;-65
2021/05/01 02:09:59;;;;;;;21.13;18.77;;;;;;;;;;5090069;28;20270;-64
2021/05/01 02:12:25;;;;;;;20.50;18.23;;;;;;;;;;5082186;28;20180;-64
2021/05/01 02:14:51;;;;;;;24.50;21.88;;;;;;;;;;5086528;28;20478;-64
2021/05/01 02:17:17;;;;;;;23.37;19.97;;;;;;;;;;5086541;28;20231;-65
2021/05/01 02:19:43;;;;;;;21.57;18.57;;;;;;;;;;5073744;28;20568;-64
2021/05/01 02:22:10;;;;;;;20.10;17.97;;;;;;;;;;5071162;28;20234;-64
2021/05/01 02:24:36;;;;;;;20.10;17.63;;;;;;;;;;5083214;28;20178;-64
2021/05/01 02:27:02;;;;;;;22.63;19.60;;;;;;;;;;5081160;28;20319;-65
2021/05/01 02:29:28;;;;;;;21.37;19.13;;;;;;;;;;5081225;28;20705;-65
2021/05/01 02:31:54;;;;;;;20.33;18.20;;;;;;;;;;5092632;28;20266;-65
2021/05/01 02:34:20;;;;;;;21.53;18.60;;;;;;;;;;5072843;28;20670;-65
2021/05/01 02:36:46;;;;;;;21.03;17.60;;;;;;;;;;5071423;28;20208;-65
2021/05/01 02:39:12;;;;;;;21.93;17.80;;;;;;;;;;5059974;28;20184;-64
2021/05/01 02:41:38;;;;;;;21.13;18.90;;;;;;;;;;5052484;28;20542;-65
2021/05/01 02:44:04;;;;;;;20.20;17.97;;;;;;;;;;5071031;28;20203;-65
2021/05/01 02:46:30;;;;;;;21.77;19.43;;;;;;;;;;5036361;28;20610;-64
2021/05/01 02:48:56;;;;;;;19.67;17.57;;;;;;;;;;5071495;28;20577;-65
2021/05/01 02:51:22;;;;;;;19.43;17.33;;;;;;;;;;5061493;28;20227;-66
2021/05/01 02:53:49;;;;;;;20.70;18.47;;;;;;;;;;5056524;28;20230;-67
2021/05/01 02:56:15;;;;;;;20.53;18.13;;;;;;;;;;5070045;28;20540;-64
2021/05/01 02:58:41;;;;;;;24.73;22.13;;;;;;;;;;5052479;28;20418;-64
2021/05/01 03:01:07;;;;;;;22.47;20.07;;;;;;;;;;5053521;28;20606;-64
2021/05/01 03:03:33;;;;;;;20.73;18.63;;;;;;;;;;5071738;28;20184;-64
2021/05/01 03:05:59;;;;;;;20.73;18.60;;;;;;;;;;5070899;28;20519;-65
2021/05/01 03:08:25;;;;;;;21.67;19.17;;;;;;;;;;5069354;28;20200;-65
2021/05/01 03:10:51;;;;;;;22.07;19.53;;;;;;;;;;5069917;28;20188;-64
2021/05/01 03:13:17;;;;;;;21.13;18.83;;;;;;;;;;5070302;28;20233;-64
2021/05/01 03:15:43;;;;;;;20.63;18.43;;;;;;;;;;5071293;28;20715;-64
2021/05/01 03:18:09;;;;;;;22.03;19.83;;;;;;;;;;5069931;28;20191;-65
2021/05/01 03:20:35;;;;;;;20.57;17.70;;;;;;;;;;5070542;28;20172;-65
2021/05/01 03:23:03;;;;;;;19.87;17.80;;;;;;;;;;5040190;28;20173;-65
2021/05/01 03:25:29;;;;;;;22.37;18.83;;;;;;;;;;5069057;28;20177;-67
2021/05/01 03:27:55;;;;;;;22.80;20.37;;;;;;;;;;5052675;28;20195;-65
2021/05/01 03:30:21;;;;;;;20.53;18.37;;;;;;;;;;5071640;28;20259;-65
2021/05/01 03:32:47;;;;;;;21.00;18.70;;;;;;;;;;5071276;28;20184;-64
2021/05/01 03:35:15;;;;;;;22.43;20.03;;;;;;;;;;5089605;28;20262;-65
2021/05/01 03:37:41;;;;;;;24.57;20.27;;;;;;;;;;5083240;28;20617;-65
2021/05/01 03:40:08;;;;;;;22.60;19.10;;;;;;;;;;5086244;28;20176;-64
2021/05/01 03:42:34;;;;;;;23.93;21.10;;;;;;;;;;5071282;28;20413;-66
2021/05/01 03:45:00;;;;;;;26.10;20.73;;;;;;;;;;5067504;28;20183;-65
2021/05/01 03:47:26;;;;;;;23.10;20.27;;;;;;;;;;5082556;28;20255;-64
2021/05/01 03:49:52;;;;;;;23.97;21.13;;;;;;;;;;5067327;28;20238;-66
2021/05/01 03:52:18;;;;;;;21.50;19.07;;;;;;;;;;5090746;28;20655;-65
2021/05/01 03:54:44;;;;;;;23.90;21.07;;;;;;;;;;5071246;28;20657;-64
2021/05/01 03:57:10;;;;;;;23.07;20.20;;;;;;;;;;5075821;28;20188;-64
2021/05/01 03:59:36;;;;;;;25.87;21.17;;;;;;;;;;5080193;28;20649;-64
2021/05/01 04:02:02;;;;;;;25.37;20.37;;;;;;;;;;5076715;28;20215;-64
2021/05/01 04:04:29;;;;;;;22.17;19.50;;;;;;;;;;5062022;28;20207;-65
2021/05/01 04:06:55;;;;;;;22.50;19.53;;;;;;;;;;5089282;28;20272;-64
2021/05/01 04:09:21;;;;;;;22.10;19.80;;;;;;;;;;5087480;28;20654;-67
2021/05/01 04:11:47;;;;;;;24.87;20.47;;;;;;;;;;5075970;28;20196;-65
2021/05/01 04:14:13;;;;;;;21.63;18.93;;;;;;;;;;5080130;28;20183;-64
2021/05/01 04:16:39;;;;;;;22.57;20.20;;;;;;;;;;5088955;28;20199;-64
2021/05/01 04:19:05;;;;;;;21.03;18.77;;;;;;;;;;5072481;28;20184;-65
2021/05/01 04:21:31;;;;;;;20.53;18.20;;;;;;;;;;5082501;28;20177;-64
2021/05/01 04:23:57;;;;;;;25.03;19.97;;;;;;;;;;5059325;28;20214;-65
2021/05/01 04:26:23;;;;;;;21.67;18.80;;;;;;;;;;5087573;28;20175;-65
2021/05/01 04:28:51;;;;;;;22.53;18.67;;;;;;;;;;5086535;28;20496;-65
2021/05/01 04:31:17;;;;;;;22.23;18.47;;;;;;;;;;5084274;28;20179;-64
2021/05/01 04:33:43;;;;;;;21.87;18.47;;;;;;;;;;5073252;28;20215;-64
2021/05/01 04:36:09;;;;;;;20.50;17.70;;;;;;;;;;5089243;28;20203;-67
2021/05/01 04:38:35;;;;;;;21.90;18.73;;;;;;;;;;5089941;28;20175;-64
2021/05/01 04:41:01;;;;;;;23.00;18.20;;;;;;;;;;5084348;28;20288;-64
2021/05/01 04:43:27;;;;;;;21.17;17.60;;;;;;;;;;5074939;28;20183;-64
2021/05/01 04:45:54;;;;;;;18.43;16.57;;;;;;;;;;5070657;28;20179;-65
2021/05/01 04:48:21;;;;;;;21.30;17.77;;;;;;;;;;5081681;28;20175;-64
2021/05/01 04:50:53;;;;;;;22.13;17.97;;;;;;;;;;5051667;28;20207;-64
2021/05/01 04:53:20;;;;;;;20.33;17.90;;;;;;;;;;5075206;28;20683;-65
2021/05/01 04:55:46;;;;;;;21.20;18.73;;;;;;;;;;5085697;28;20200;-64
2021/05/01 04:58:12;;;;;;;20.13;17.20;;;;;;;;;;5078366;28;20180;-64
2021/05/01 05:00:38;;;;;;;19.40;16.97;;;;;;;;;;5078761;28;20186;-64
2021/05/01 05:03:04;;;;;;;19.43;17.30;;;;;;;;;;5089861;28;20558;-65
2021/05/01 05:05:30;;;;;;;21.17;18.70;;;;;;;;;;5068647;28;20195;-65
2021/05/01 05:07:56;;;;;;;21.27;18.97;;;;;;;;;;5071996;28;20632;-64
2021/05/01 05:10:22;;;;;;;21.60;18.40;;;;;;;;;;5088568;28;20246;-64
2021/05/01 05:12:49;;;;;;;20.50;16.93;;;;;;;;;;5069414;28;20225;-63
2021/05/01 05:15:15;;;;;;;22.23;19.00;;;;;;;;;;5086072;28;20208;-65
2021/05/01 05:17:41;;;;;;;18.17;16.37;;;;;;;;;;5057211;28;20237;-64
2021/05/01 05:20:07;;;;;;;21.80;18.77;;;;;;;;;;5087152;28;20231;-65
2021/05/01 05:22:33;;;;;;;19.90;17.77;;;;;;;;;;5074239;28;20182;-64
2021/05/01 05:25:00;;;;;;;20.80;18.03;;;;;;;;;;5079948;28;20168;-65
2021/05/01 05:27:26;;;;;;;20.70;17.77;;;;;;;;;;5080409;28;20188;-65
2021/05/01 05:29:52;;;;;;;20.37;17.87;;;;;;;;;;5067106;28;20180;-64
2021/05/01 05:32:19;;;;;;;18.87;16.83;;;;;;;;;;5074732;28;20177;-64
2021/05/01 05:34:45;;;;;;;19.73;17.63;;;;;;;;;;5080767;28;20751;-64
2021/05/01 05:37:12;;;;;;;20.17;17.53;;;;;;;;;;5082266;28;20210;-64
2021/05/01 05:39:38;;;;;;;19.50;16.87;;;;;;;;;;5088544;28;20512;-65
2021/05/01 05:42:06;;;;;;;19.67;16.77;;;;;;;;;;5078578;28;20663;-64
2021/05/01 05:44:32;;;;;;;18.60;16.57;;;;;;;;;;5080466;28;20216;-65
2021/05/01 05:46:58;;;;;;;19.30;16.27;;;;;;;;;;5086894;28;20548;-65
2021/05/01 05:49:24;;;;;;;17.77;15.93;;;;;;;;;;5087960;28;20200;-65
2021/05/01 05:51:50;;;;;;;17.00;15.20;;;;;;;;;;5061331;28;20184;-66
2021/05/01 05:54:16;;;;;;;18.50;15.57;;;;;;;;;;5088217;28;20171;-65
2021/05/01 05:56:43;;;;;;;16.13;14.50;;;;;;;;;;5079759;28;20197;-64
2021/05/01 05:59:09;;;;;;;15.10;13.50;;;;;;;;;;5084302;28;20179;-65
2021/05/01 06:01:39;;;;;;;16.27;14.57;;;;;;;;;;5085841;28;20176;-64
2021/05/01 06:04:08;;;;;;;16.00;13.53;;;;;;;;;;5072819;28;20180;-64
2021/05/01 06:06:34;;;;;;;17.00;14.37;;;;;;;;;;5085268;28;20183;-64
2021/05/01 06:09:02;;;;;;;15.87;13.30;;;;;;;;;;5077154;28;20184;-64
2021/05/01 06:11:29;;;;;;;16.37;13.97;;;;;;;;;;5078825;28;20204;-64
2021/05/01 06:13:56;;;;;;;17.53;13.67;;;;;;;;;;5061512;28;20191;-64
2021/05/01 06:16:22;;;;;;;16.73;14.17;;;;;;;;;;5088105;28;20223;-65
2021/05/01 06:18:49;;;;;;;16.37;14.17;;;;;;;;;;5067552;28;20178;-64
2021/05/01 06:21:15;;;;;;;19.53;13.50;;;;;;;;;;5083002;28;20172;-64
2021/05/01 06:23:42;;;;;;;15.40;13.73;;;;;;;;;;5068939;28;20180;-64
2021/05/01 06:26:08;;;;;;;15.07;12.40;;;;;;;;;;5090987;28;20184;-64
2021/05/01 06:28:35;;;;;;;17.17;12.90;;;;;;;;;;5088007;28;20189;-64
2021/05/01 06:31:01;;;;;;;15.60;13.63;;;;;;;;;;5086476;28;20180;-64
2021/05/01 06:33:28;;;;;;;14.43;12.93;;;;;;;;;;5074049;28;20223;-64
2021/05/01 06:35:55;;;;;;;18.03;13.63;;;;;;;;;;5084666;28;20200;-64
2021/05/01 06:38:21;;;;;;;15.90;13.97;;;;;;;;;;5084961;28;20670;-64
2021/05/01 06:40:52;;;;;;;14.03;11.73;;;;;;;;;;5102595;28;20176;-64
2021/05/01 06:43:36;;;;;;;14.33;12.43;;;;;;;;;;5081749;28;20163;-64
2021/05/01 06:46:04;;;;;;;14.10;11.60;;;;;;;;;;5061780;28;20665;-64
2021/05/01 06:48:32;;;;;;;14.33;12.20;;;;;;;;;;5072256;28;20546;-64
2021/05/01 06:51:00;;;;;;;12.03;10.20;;;;;;;;;;5091170;28;20196;-64
2021/05/01 06:53:30;;;;;;;14.97;10.93;;;;;;;;;;5092217;28;20631;-63
2021/05/01 06:56:03;;;;;;;15.17;11.20;;;;;;;;;;5090025;28;20234;-64
2021/05/01 06:58:33;;;;;;;11.63;10.43;;;;;;;;;;5085118;28;20187;-64
2021/05/01 07:01:03;;;;;;;12.93;9.93;;;;;;;;;;5089997;28;20539;-65
2021/05/01 07:03:31;;;;;;;13.67;9.63;;;;;;;;;;5075449;28;20180;-64
2021/05/01 07:05:58;;;;;;;14.13;10.57;;;;;;;;;;5091732;28;20213;-65
2021/05/01 07:08:25;;;;;;;12.53;9.77;;;;;;;;;;5073571;28;20288;-65
2021/05/01 07:10:52;;;;;;;10.93;9.40;;;;;;;;;;5090703;28;20661;-64
2021/05/01 07:13:18;;;;;;;11.23;9.77;;;;;;;;;;5091261;28;20175;-64
2021/05/01 07:15:44;;;;;;;9.83;8.83;;;;;;;;;;5081563;28;20268;-64
2021/05/01 07:18:11;;;;;;;11.33;8.63;;;;;;;;;;5091368;28;20200;-65
2021/05/01 07:20:37;;;;;;;10.27;8.60;;;;;;;;;;5090719;28;20258;-64
2021/05/01 07:23:03;;;;;;;10.37;8.43;;;;;;;;;;5091804;28;20171;-63
2021/05/01 07:25:29;;;;;;;12.50;9.07;;;;;;;;;;5090101;28;20255;-64
2021/05/01 07:27:56;;;;;;;12.30;9.00;;;;;;;;;;5090753;28;20228;-64
2021/05/01 07:30:27;;;;;;;10.20;9.20;;;;;;;;;;5086275;28;20267;-64
2021/05/01 07:32:54;;;;;;;12.43;10.37;;;;;;;;;;5067925;28;20178;-64
2021/05/01 07:35:21;;;;;;;11.00;8.83;;;;;;;;;;5084362;28;20701;-64
2021/05/01 07:37:51;;;;;;;12.83;9.90;;;;;;;;;;5086066;28;20326;-63
2021/05/01 07:40:21;;;;;;;11.60;9.90;;;;;;;;;;5064592;28;20195;-63
2021/05/01 07:42:49;;;;;;;13.07;10.67;;;;;;;;;;5091464;28;20176;-65
2021/05/01 07:45:20;;;;;;;12.93;10.70;;;;;;;;;;5073365;28;20187;-62
2021/05/01 07:47:48;;;;;;;12.70;10.70;;;;;;;;;;5091479;28;20595;-62
2021/05/01 07:50:14;;;;;;;14.70;11.13;;;;;;;;;;5090841;28;20680;-63
2021/05/01 07:52:40;;;;;;;14.17;10.80;;;;;;;;;;5082278;28;20173;-63
2021/05/01 07:55:07;;;;;;;12.90;11.10;;;;;;;;;;5058428;28;20259;-63
2021/05/01 07:57:33;;;;;;;12.63;9.93;;;;;;;;;;5080218;28;20192;-62
2021/05/01 07:59:59;;;;;;;12.00;10.10;;;;;;;;;;5089819;28;20171;-62
2021/05/01 08:02:25;;;;;;;11.63;9.70;;;;;;;;;;5082675;28;20168;-63
2021/05/01 08:04:51;;;;;;;13.63;10.80;;;;;;;;;;5087458;28;20199;-62
2021/05/01 08:07:18;;;;;;;11.53;10.47;;;;;;;;;;5091107;28;20259;-64
2021/05/01 08:09:44;;;;;;;11.97;10.10;;;;;;;;;;5070891;28;20467;-62
2021/05/01 08:12:10;;;;;;;11.33;9.20;;;;;;;;;;5092557;28;20184;-63
2021/05/01 08:14:36;;;;;;;11.13;9.00;;;;;;;;;;5063182;28;20180;-63
2021/05/01 08:17:02;;;;;;;10.77;9.33;;;;;;;;;;5067396;28;20199;-62
2021/05/01 08:19:28;;;;;;;10.80;9.70;;;;;;;;;;5088985;28;20195;-64
2021/05/01 08:21:54;;;;;;;10.27;8.20;;;;;;;;;;5071316;28;20169;-63
2021/05/01 08:24:20;;;;;;;10.83;9.13;;;;;;;;;;5068411;28;20195;-65
2021/05/01 08:26:46;;;;;;;11.43;9.50;;;;;;;;;;5082784;28;20622;-62
2021/05/01 08:29:12;;;;;;;13.13;10.83;;;;;;;;;;5076981;28;20240;-63
2021/05/01 08:31:38;;;;;;;11.13;10.10;;;;;;;;;;5076465;28;20216;-63
2021/05/01 08:34:04;;;;;;;15.70;12.00;;;;;;;;;;5077097;28;20220;-63
2021/05/01 08:36:30;;;;;;;10.97;9.87;;;;;;;;;;5032949;28;20217;-64
2021/05/01 08:38:56;;;;;;;10.53;9.37;;;;;;;;;;5046776;28;20218;-63
2021/05/01 08:41:26;;;;;;;11.30;9.57;;;;;;;;;;5056766;28;20181;-64
2021/05/01 08:43:52;;;;;;;12.00;10.67;;;;;;;;;;5046299;28;20192;-63
2021/05/01 08:46:22;;;;;;;11.93;10.70;;;;;;;;;;5069701;28;20549;-63
2021/05/01 08:48:52;;;;;;;13.33;10.60;;;;;;;;;;5065503;28;20195;-63
2021/05/01 08:51:18;;;;;;;12.87;10.83;;;;;;;;;;5059332;28;20662;-63
2021/05/01 08:53:44;;;;;;;17.60;10.93;;;;;;;;;;5061008;28;20211;-63
2021/05/01 08:56:10;;;;;;;11.77;10.40;;;;;;;;;;5066464;28;20196;-64
2021/05/01 08:58:36;;;;;;;11.40;10.03;;;;;;;;;;5066279;28;20165;-63
2021/05/01 09:01:03;;;;;;;13.83;10.80;;;;;;;;;;5068726;28;20196;-66
2021/05/01 09:03:29;;;;;;;11.67;10.27;;;;;;;;;;5068710;28;20187;-64
2021/05/01 09:05:56;;;;;;;11.10;9.83;;;;;;;;;;5069507;28;20176;-63
2021/05/01 09:08:23;;;;;;;10.87;9.53;;;;;;;;;;5065489;28;20209;-64
2021/05/01 09:10:50;;;;;;;11.40;9.47;;;;;;;;;;5049804;28;20184;-64
2021/05/01 09:13:16;;;;;;;9.87;8.97;;;;;;;;;;5051757;28;20186;-64
2021/05/01 09:15:54;;;;;;;10.07;8.90;;;;;;;;;;5070158;28;20251;-64
2021/05/01 09:18:20;;;;;;;10.37;8.90;;;;;;;;;;5064432;28;20172;-64
2021/05/01 09:20:46;;;;;;;10.00;8.40;;;;;;;;;;5069958;28;20525;-65
2021/05/01 09:23:12;;;;;;;8.93;8.07;;;;;;;;;;5051330;28;20267;-64
2021/05/01 09:25:48;;;;;;;10.03;8.43;;;;;;;;;;5051395;28;20635;-64
2021/05/01 09:28:15;;;;;;;10.77;9.03;;;;;;;;;;5055392;28;20187;-64
2021/05/01 09:30:42;;;;;;;12.47;8.10;;;;;;;;;;5054274;28;20187;-64
2021/05/01 09:33:23;;;;;;;9.90;8.03;;;;;;;;;;5057097;28;20168;-66
2021/05/01 09:35:50;;;;;;;9.27;8.37;;;;;;;;;;5074726;28;20578;-64
2021/05/01 09:38:16;;;;;;;9.63;8.20;;;;;;;;;;5092759;28;20752;-64
2021/05/01 09:40:45;;;;;;;8.50;7.70;;;;;;;;;;5054509;28;20267;-64
2021/05/01 09:43:11;;;;;;;8.43;7.27;;;;;;;;;;5082822;28;20609;-66
2021/05/01 09:45:37;;;;;;;7.73;6.97;;;;;;;;;;5073517;28;20187;-64
2021/05/01 09:48:11;;;;;;;8.67;7.30;;;;;;;;;;5073661;28;20168;-64
2021/05/01 09:50:37;;;;;;;9.07;6.70;;;;;;;;;;5073506;28;20666;-64
2021/05/01 09:53:10;;;;;;;7.30;6.60;;;;;;;;;;5073575;28;20168;-64
2021/05/01 09:55:47;;;;;;;7.33;6.63;;;;;;;;;;5055505;28;20180;-64
2021/05/01 09:58:14;;;;;;;8.10;6.85;;;;;;;;;;5055608;28;20356;-64
2021/05/01 10:00:40;;;;;;;6.57;5.90;;;;;;;;;;5075185;28;20176;-64
2021/05/01 10:03:39;;;;;;;7.63;6.03;;;;;;;;;;5075443;28;20168;-64
2021/05/01 10:06:06;;;;;;;6.30;5.70;;;;;;;;;;5034550;28;20280;-65
2021/05/01 10:08:32;;;;;;;6.83;6.13;;;;;;;;;;5092942;28;20183;-64
2021/05/01 10:11:07;;;;;;;6.63;5.93;;;;;;;;;;5092393;28;20175;-65
2021/05/01 10:13:35;;;;;;;6.73;6.10;;;;;;;;;;5092864;28;20525;-65
2021/05/01 10:16:07;;;;;;;6.00;5.40;;;;;;;;;;5064702;28;20229;-65
2021/05/01 10:18:33;;;;;;;7.13;5.83;;;;;;;;;;5062256;28;20163;-65
2021/05/01 10:21:00;;;;;;;8.03;5.80;;;;;;;;;;5091128;28;20230;-65
2021/05/01 10:23:26;;;;;;;6.80;6.20;;;;;;;;;;5088214;28;20183;-64
2021/05/01 10:25:52;;;;;;;5.90;5.30;;;;;;;;;;5086394;28;20183;-64
2021/05/01 10:28:19;;;;;;;5.90;5.20;;;;;;;;;;5086910;28;20180;-64
2021/05/01 10:30:52;;;;;;;6.53;5.57;;;;;;;;;;5090196;28;20316;-64
2021/05/01 10:33:31;;;;;;;7.97;4.90;;;;;;;;;;5090509;28;20302;-64
2021/05/01 10:35:59;;;;;;;5.30;4.80;;;;;;;;;;5092519;28;20286;-64
2021/05/01 10:38:25;;;;;;;6.23;5.20;;;;;;;;;;5063771;28;20217;-64
2021/05/01 10:40:53;;;;;;;5.73;4.93;;;;;;;;;;5090983;28;20778;-66
2021/05/01 10:43:20;;;;;;;6.47;5.63;;;;;;;;;;5086418;28;20176;-66
2021/05/01 10:45:47;;;;;;;5.07;4.47;;;;;;;;;;5087485;28;20176;-65
2021/05/01 10:48:14;;;;;;;5.70;4.97;;;;;;;;;;5063421;28;20168;-64
2021/05/01 10:50:40;;;;;;;5.80;4.97;;;;;;;;;;5069528;28;20196;-64
2021/05/01 10:53:07;;;;;;;5.60;4.53;;;;;;;;;;5089870;28;20164;-64
2021/05/01 10:56:03;;;;;;;5.40;4.60;;;;;;;;;;5090355;28;20172;-65
2021/05/01 10:58:33;;;;;;;6.87;4.80;;;;;;;;;;5060520;28;20644;-64
2021/05/01 11:00:59;;;;;;;5.20;4.57;;;;;;;;;;5077370;28;20184;-66
2021/05/01 11:03:26;;;;;;;5.43;4.93;;;;;;;;;;5073527;28;20179;-65
2021/05/01 11:05:57;;;;;;;5.10;4.23;;;;;;;;;;5072238;28;20704;-65
2021/05/01 11:08:32;;;;;;;6.40;4.67;;;;;;;;;;5082771;28;20256;-65
2021/05/01 11:10:58;;;;;;;5.30;4.80;;;;;;;;;;5072458;28;20172;-64
2021/05/01 11:13:25;;;;;;;7.00;4.90;;;;;;;;;;5084634;28;20186;-64
2021/05/01 11:15:53;;;;;;;6.00;4.97;;;;;;;;;;5071814;28;20207;-64
2021/05/01 11:18:20;;;;;;;7.73;6.10;;;;;;;;;;5074097;28;20227;-65
2021/05/01 11:20:47;;;;;;;5.70;4.97;;;;;;;;;;5083976;28;20184;-66
2021/05/01 11:23:16;;;;;;;5.03;4.20;;;;;;;;;;5073326;28;20259;-64
2021/05/01 11:25:43;;;;;;;5.23;4.67;;;;;;;;;;5088038;28;20215;-64
2021/05/01 11:28:13;;;;;;;4.67;3.90;;;;;;;;;;5088138;28;20176;-64
2021/05/01 11:30:39;;;;;;;4.53;3.87;;;;;;;;;;5057054;28;20172;-64
2021/05/01 11:33:08;;;;;;;7.07;4.77;;;;;;;;;;5071834;28;20184;-67
2021/05/01 11:35:35;;;;;;;4.23;3.67;;;;;;;;;;5088172;28;20236;-64
2021/05/01 11:38:02;;;;;;;4.47;3.93;;;;;;;;;;5083335;28;20227;-64
2021/05/01 11:40:29;;;;;;;4.03;3.63;;;;;;;;;;5076500;28;20311;-65
2021/05/01 11:42:57;;;;;;;4.27;3.90;;;;;;;;;;5085973;28;20177;-65
2021/05/01 11:45:41;;;;;;;4.80;4.30;;;;;;;;;;5061087;28;20180;-65
2021/05/01 11:48:10;;;;;;;4.23;3.83;;;;;;;;;;5071328;28;20596;-65
2021/05/01 11:50:37;;;;;;;4.77;4.37;;;;;;;;;;5075742;28;20199;-65
2021/05/01 11:53:14;;;;;;;4.97;4.53;;;;;;;;;;5080180;28;20207;-65
2021/05/01 11:55:46;;;;;;;4.40;4.00;;;;;;;;;;5074230;28;20167;-65
2021/05/01 11:58:27;;;;;;;4.50;4.10;;;;;;;;;;5072392;28;20179;-64
2021/05/01 12:00:53;;;;;;;4.53;4.13;;;;;;;;;;5063264;28;20220;-64
2021/05/01 12:03:19;;;;;;;5.50;4.63;;;;;;;;;;5081374;28;20704;-65
2021/05/01 12:05:49;;;;;;;5.60;4.10;;;;;;;;;;5063621;28;20188;-64
2021/05/01 12:08:21;;;;;;;4.07;3.67;;;;;;;;;;5087120;28;20615;-65
2021/05/01 12:10:51;;;;;;;6.00;4.27;;;;;;;;;;5056410;28;20169;-64
2021/05/01 12:13:25;;;;;;;4.40;4.00;;;;;;;;;;5085274;28;20180;-64
2021/05/01 12:15:52;;;;;;;4.33;3.93;;;;;;;;;;5065616;28;20190;-65
2021/05/01 12:18:19;;;;;;;6.23;4.27;;;;;;;;;;5060205;28;20180;-65
2021/05/01 12:20:46;;;;;;;4.77;4.27;;;;;;;;;;5073492;28;20190;-65
2021/05/01 12:23:13;;;;;;;4.50;4.10;;;;;;;;;;5085062;28;20236;-64
2021/05/01 12:25:46;;;;;;;4.20;3.87;;;;;;;;;;5077725;28;20172;-64
2021/05/01 12:28:12;;;;;;;5.57;5.03;;;;;;;;;;5068874;28;20172;-64
2021/05/01 12:30:43;;;;;;;6.13;3.90;;;;;;;;;;5082013;28;20631;-64
2021/05/01 12:33:25;;;;;;;6.23;4.37;;;;;;;;;;5073851;28;20231;-66
2021/05/01 12:35:58;;;;;;;5.60;4.43;;;;;;;;;;5079880;28;20624;-64
2021/05/01 12:38:24;;;;;;;4.60;4.20;;;;;;;;;;5080910;28;20635;-64
2021/05/01 12:41:12;;;;;;;4.53;4.13;;;;;;;;;;5077358;28;20261;-66
2021/05/01 12:43:39;;;;;;;4.40;4.00;;;;;;;;;;5066791;28;20176;-64
2021/05/01 12:46:14;;;;;;;4.40;4.00;;;;;;;;;;5083040;28;20325;-66
2021/05/01 12:48:46;;;;;;;4.63;4.23;;;;;;;;;;5091255;28;20186;-67
2021/05/01 12:51:16;;;;;;;4.63;3.80;;;;;;;;;;5078737;28;20957;-64
2021/05/01 12:53:43;;;;;;;5.10;4.27;;;;;;;;;;5085725;28;20635;-65
2021/05/01 12:56:28;;;;;;;4.93;4.53;;;;;;;;;;5085883;28;20257;-64
2021/05/01 12:59:20;;;;;;;9.10;4.63;;;;;;;;;;5080195;28;20199;-64
2021/05/01 13:01:46;;;;;;;4.93;4.33;;;;;;;;;;5079050;28;20663;-65
2021/05/01 13:04:19;;;;;;;4.37;3.97;;;;;;;;;;5090539;28;20184;-64
2021/05/01 13:06:49;;;;;;;5.43;4.73;;;;;;;;;;5090649;28;20176;-64
2021/05/01 13:09:16;;;;;;;3.90;3.50;;;;;;;;;;5076719;28;20195;-64
2021/05/01 13:11:43;;;;;;;6.17;4.80;;;;;;;;;;5095206;28;20190;-66
2021/05/01 13:14:16;;;;;;;4.70;4.30;;;;;;;;;;5087294;28;20176;-64
2021/05/01 13:17:04;;;;;;;5.27;4.60;;;;;;;;;;5095254;28;20244;-64
2021/05/01 13:19:31;;;;;;;6.37;4.30;;;;;;;;;;5072459;28;20172;-65
2021/05/01 13:21:59;;;;;;;5.90;5.10;;;;;;;;;;5060404;28;20263;-63
2021/05/01 13:24:29;;;;;;;6.13;5.30;;;;;;;;;;5084222;28;20176;-63
2021/05/01 13:26:55;;;;;;;8.00;5.40;;;;;;;;;;5097992;28;20254;-63
2021/05/01 13:29:28;;;;;;;5.17;4.67;;;;;;;;;;5093110;28;20599;-63
2021/05/01 13:31:54;;;;;;;5.30;4.63;;;;;;;;;;5079298;28;20183;-63
2021/05/01 13:34:21;;;;;;;5.57;5.07;;;;;;;;;;5093357;28;20556;-63
2021/05/01 13:36:47;;;;;;;5.03;4.63;;;;;;;;;;5065509;28;20208;-63
2021/05/01 13:39:23;;;;;;;5.10;4.70;;;;;;;;;;5085952;28;20236;-64
2021/05/01 13:42:05;;;;;;;4.23;3.93;;;;;;;;;;5093757;28;20657;-63
2021/05/01 13:44:41;;;;;;;4.50;4.10;;;;;;;;;;5077351;28;20186;-66
2021/05/01 13:47:27;;;;;;;6.77;4.97;;;;;;;;;;5073975;28;20168;-64
2021/05/01 13:50:02;;;;;;;5.00;4.50;;;;;;;;;;5090833;28;20207;-64
2021/05/01 13:52:32;;;;;;;4.93;4.27;;;;;;;;;;5069436;28;20230;-63
2021/05/01 13:55:14;;;;;;;5.03;4.47;;;;;;;;;;5083529;28;20257;-63
2021/05/01 13:57:40;;;;;;;4.90;4.50;;;;;;;;;;5092804;28;20200;-63
2021/05/01 14:00:07;;;;;;;5.50;4.90;;;;;;;;;;5093938;28;20270;-64
2021/05/01 14:02:34;;;;;;;5.63;5.10;;;;;;;;;;5092855;28;20179;-63
2021/05/01 14:05:00;;;;;;;6.93;4.82;;;;;;;;;;5091970;28;20767;-62
2021/05/01 14:07:26;;;;;;;5.07;3.77;;;;;;;;;;5076273;28;20266;-62
2021/05/01 14:09:52;;;;;;;4.17;3.80;;;;;;;;;;5076459;28;20203;-65
2021/05/01 14:12:18;;;;;;;5.20;4.70;;;;;;;;;;5060274;28;20185;-64
2021/05/01 14:14:45;;;;;;;3.87;3.57;;;;;;;;;;5085175;28;20188;-61
2021/05/01 14:17:13;;;;;;;3.93;3.17;;;;;;;;;;5073151;28;20195;-63
2021/05/01 14:19:39;;;;;;;4.77;3.70;;;;;;;;;;5075843;28;20173;-63
2021/05/01 14:22:10;;;;;;;7.27;3.90;;;;;;;;;;5073154;28;20179;-64
2021/05/01 14:24:36;;;;;;;4.90;4.50;;;;;;;;;;5089349;28;20256;-63
2021/05/01 14:27:02;;;;;;;5.50;3.43;;;;;;;;;;5081425;28;20265;-64
2021/05/01 14:29:30;;;;;;;4.37;4.03;;;;;;;;;;5076250;28;20621;-64